^^
Jimboomba-Weather Station Historical Data
 
Daily Summary for June 19, 2024 Units:  Metric    English   Both
Daily Weekly Monthly Yearly
  Current: High: Low: Average:
Temperature: 2.9 °C 9 °C 2.9 °C 6 °C
Dew Point: -19.8 °C 2.8 °C -21 °C -4.3 °C
Humidity: 17% 65% 15% 51%
Wind Speed: 0km/h 0km/h 0km/h 0km/h
Wind Gust: 0km/h 0km/h - -
WindCalm - - North
Pressure: 1016.8 hPa 1016.8 hPa 1015.0 hPa -
Precipitation: 0.0 mm      
 
 
Tabular Data for June 19, 2024
Time Temperature Dew Point Pressure Wind Wind Speed Wind Gust Humidity Rainfall Rate (Hourly) solar
00:15 9 °C 2.8 °C 1015.7 hPa Calm     65% 0.0 mm W/m2
00:30 8.9 °C 2.7 °C 1015.6 hPa Calm     65% 0.0 mm W/m2
00:45 8.8 °C 2.6 °C 1015.5 hPa Calm     65% 0.0 mm W/m2
01:00 8.4 °C 2.2 °C 1015.5 hPa Calm     65% 0.0 mm W/m2
01:15 8.2 °C 2 °C 1015.6 hPa Calm     65% 0.0 mm W/m2
01:30 8 °C 1.6 °C 1015.6 hPa Calm     64% 0.0 mm W/m2
01:45 7.9 °C 1.6 °C 1015.5 hPa Calm     64% 0.0 mm W/m2
02:00 7.8 °C 1.4 °C 1015.5 hPa Calm     64% 0.0 mm W/m2
02:15 7.6 °C 1.2 °C 1015.4 hPa Calm     64% 0.0 mm W/m2
02:30 7.3 °C 0.9 °C 1015.6 hPa Calm     64% 0.0 mm W/m2
02:45 6.9 °C 0.6 °C 1015.6 hPa Calm     64% 0.0 mm W/m2
03:15 6.4 °C -1.3 °C 1015.3 hPa Calm     58% 0.0 mm W/m2
03:30 6.3 °C -1.6 °C 1015.3 hPa Calm     57% 0.0 mm W/m2
03:45 6.1 °C -1.3 °C 1015.2 hPa Calm     59% 0.0 mm W/m2
04:00 5.8 °C -2.1 °C 1015.3 hPa Calm     57% 0.0 mm W/m2
04:15 5.4 °C -3.4 °C 1015.0 hPa Calm     53% 0.0 mm W/m2
04:30 5.2 °C -4.7 °C 1015.2 hPa Calm     49% 0.0 mm W/m2
04:45 5.1 °C -5.9 °C 1015.5 hPa Calm     45% 0.0 mm W/m2
05:00 4.8 °C -5.6 °C 1015.8 hPa Calm     47% 0.0 mm W/m2
05:15 4.6 °C -7.6 °C 1016.0 hPa Calm     41% 0.0 mm W/m2
05:30 4.1 °C -6.8 °C 1016.2 hPa Calm     45% 0.0 mm W/m2
05:45 3.7 °C -7.8 °C 1016.3 hPa Calm     43% 0.0 mm W/m2
06:00 3.4 °C -10.9 °C 1016.4 hPa Calm     34% 0.0 mm W/m2
06:15 3.4 °C -16.3 °C 1016.3 hPa Calm     22% 0.0 mm W/m2
06:30 3.3 °C -19.4 °C 1016.5 hPa Calm     17% 0.0 mm W/m2
06:45 3.2 °C -21 °C 1016.7 hPa Calm     15% 0.0 mm W/m2
07:00 2.9 °C -19.8 °C 1016.8 hPa Calm     17% 0.0 mm W/m2
Compliments of Weather Underground - 2 mb